sensor_id;sensor_type;location;lat;lon;timestamp;P1;durP1;ratioP1;P2;durP2;ratioP2
8944;SDS011;4507;40.232;29.132;2023-03-20T00:02:25;90.50;;;73.83;;
8944;SDS011;4507;40.232;29.132;2023-03-20T00:04:54;90.00;;;75.23;;
8944;SDS011;4507;40.232;29.132;2023-03-20T00:07:24;104.20;;;82.13;;
8944;SDS011;4507;40.232;29.132;2023-03-20T00:09:53;115.80;;;87.43;;
8944;SDS011;4507;40.232;29.132;2023-03-20T00:12:25;114.13;;;88.33;;
8944;SDS011;4507;40.232;29.132;2023-03-20T00:14:54;130.50;;;93.03;;
8944;SDS011;4507;40.232;29.132;2023-03-20T00:17:23;119.27;;;89.63;;
8944;SDS011;4507;40.232;29.132;2023-03-20T00:19:52;99.33;;;80.80;;
8944;SDS011;4507;40.232;29.132;2023-03-20T00:22:21;84.57;;;70.57;;
8944;SDS011;4507;40.232;29.132;2023-03-20T00:24:50;79.70;;;69.17;;
8944;SDS011;4507;40.232;29.132;2023-03-20T00:27:20;110.00;;;83.80;;
8944;SDS011;4507;40.232;29.132;2023-03-20T00:29:50;108.03;;;83.17;;
8944;SDS011;4507;40.232;29.132;2023-03-20T00:32:19;111.67;;;85.83;;
8944;SDS011;4507;40.232;29.132;2023-03-20T00:34:48;81.17;;;68.80;;
8944;SDS011;4507;40.232;29.132;2023-03-20T00:37:17;92.90;;;75.40;;
8944;SDS011;4507;40.232;29.132;2023-03-20T00:39:46;104.23;;;79.83;;
8944;SDS011;4507;40.232;29.132;2023-03-20T00:42:17;102.57;;;76.80;;
8944;SDS011;4507;40.232;29.132;2023-03-20T00:44:52;99.40;;;76.07;;
8944;SDS011;4507;40.232;29.132;2023-03-20T00:47:25;103.30;;;76.10;;
8944;SDS011;4507;40.232;29.132;2023-03-20T00:49:56;141.23;;;86.97;;
8944;SDS011;4507;40.232;29.132;2023-03-20T00:52:25;242.90;;;98.53;;
8944;SDS011;4507;40.232;29.132;2023-03-20T00:54:55;666.03;;;122.57;;
8944;SDS011;4507;40.232;29.132;2023-03-20T00:57:25;450.93;;;103.27;;
8944;SDS011;4507;40.232;29.132;2023-03-20T00:59:58;306.50;;;73.53;;
8944;SDS011;4507;40.232;29.132;2023-03-20T01:02:50;967.67;;;174.77;;
8944;SDS011;4507;40.232;29.132;2023-03-20T01:05:23;143.20;;;92.17;;
8944;SDS011;4507;40.232;29.132;2023-03-20T01:07:53;212.37;;;111.77;;
8944;SDS011;4507;40.232;29.132;2023-03-20T01:10:23;147.33;;;94.80;;
8944;SDS011;4507;40.232;29.132;2023-03-20T01:12:57;148.50;;;95.57;;
8944;SDS011;4507;40.232;29.132;2023-03-20T01:15:31;110.17;;;78.33;;
8944;SDS011;4507;40.232;29.132;2023-03-20T01:18:01;122.23;;;84.13;;
8944;SDS011;4507;40.232;29.132;2023-03-20T01:20:30;135.47;;;90.17;;
8944;SDS011;4507;40.232;29.132;2023-03-20T01:22:59;108.43;;;79.10;;
8944;SDS011;4507;40.232;29.132;2023-03-20T01:25:28;133.33;;;89.00;;
8944;SDS011;4507;40.232;29.132;2023-03-20T01:27:57;84.57;;;64.13;;
8944;SDS011;4507;40.232;29.132;2023-03-20T01:30:27;104.40;;;79.20;;
8944;SDS011;4507;40.232;29.132;2023-03-20T01:33:00;121.07;;;93.30;;
8944;SDS011;4507;40.232;29.132;2023-03-20T01:35:34;107.90;;;84.67;;
8944;SDS011;4507;40.232;29.132;2023-03-20T01:38:04;78.40;;;60.93;;
8944;SDS011;4507;40.232;29.132;2023-03-20T01:40:47;62.97;;;53.03;;
8944;SDS011;4507;40.232;29.132;2023-03-20T01:43:22;60.93;;;48.97;;
8944;SDS011;4507;40.232;29.132;2023-03-20T01:45:55;66.23;;;50.60;;
8944;SDS011;4507;40.232;29.132;2023-03-20T01:51:35;47.73;;;40.70;;
8944;SDS011;4507;40.232;29.132;2023-03-20T01:54:11;54.90;;;43.43;;
8944;SDS011;4507;40.232;29.132;2023-03-20T01:57:04;54.80;;;42.47;;
8944;SDS011;4507;40.232;29.132;2023-03-20T01:59:39;57.53;;;42.13;;
8944;SDS011;4507;40.232;29.132;2023-03-20T02:02:12;58.00;;;43.70;;
8944;SDS011;4507;40.232;29.132;2023-03-20T02:04:44;58.53;;;44.17;;
8944;SDS011;4507;40.232;29.132;2023-03-20T02:07:19;61.00;;;44.87;;
8944;SDS011;4507;40.232;29.132;2023-03-20T02:10:00;53.40;;;41.13;;
8944;SDS011;4507;40.232;29.132;2023-03-20T02:12:46;49.27;;;40.37;;
8944;SDS011;4507;40.232;29.132;2023-03-20T02:15:25;45.90;;;39.10;;
8944;SDS011;4507;40.232;29.132;2023-03-20T02:18:09;63.63;;;44.20;;
8944;SDS011;4507;40.232;29.132;2023-03-20T02:20:43;58.30;;;41.37;;
8944;SDS011;4507;40.232;29.132;2023-03-20T02:23:37;60.83;;;47.80;;
8944;SDS011;4507;40.232;29.132;2023-03-20T02:26:38;63.77;;;48.13;;
8944;SDS011;4507;40.232;29.132;2023-03-20T02:35:56;69.70;;;51.83;;
8944;SDS011;4507;40.232;29.132;2023-03-20T02:38:52;58.63;;;49.17;;
8944;SDS011;4507;40.232;29.132;2023-03-20T02:41:38;54.57;;;44.83;;
8944;SDS011;4507;40.232;29.132;2023-03-20T02:44:12;55.73;;;46.13;;
8944;SDS011;4507;40.232;29.132;2023-03-20T02:46:53;60.63;;;49.97;;
8944;SDS011;4507;40.232;29.132;2023-03-20T02:52:25;122.67;;;101.43;;
8944;SDS011;4507;40.232;29.132;2023-03-20T02:55:22;136.70;;;114.60;;
8944;SDS011;4507;40.232;29.132;2023-03-20T02:58:00;113.47;;;94.40;;
8944;SDS011;4507;40.232;29.132;2023-03-20T03:00:44;84.47;;;67.30;;
8944;SDS011;4507;40.232;29.132;2023-03-20T03:03:17;95.40;;;75.97;;
8944;SDS011;4507;40.232;29.132;2023-03-20T03:05:52;91.97;;;71.90;;
8944;SDS011;4507;40.232;29.132;2023-03-20T03:08:26;77.80;;;65.00;;
8944;SDS011;4507;40.232;29.132;2023-03-20T03:11:01;90.00;;;72.57;;
8944;SDS011;4507;40.232;29.132;2023-03-20T03:13:33;89.50;;;71.33;;
8944;SDS011;4507;40.232;29.132;2023-03-20T03:16:07;94.40;;;75.20;;
8944;SDS011;4507;40.232;29.132;2023-03-20T03:18:43;88.03;;;73.17;;
8944;SDS011;4507;40.232;29.132;2023-03-20T03:21:14;86.67;;;69.00;;
8944;SDS011;4507;40.232;29.132;2023-03-20T03:23:45;87.67;;;69.77;;
8944;SDS011;4507;40.232;29.132;2023-03-20T03:26:18;82.53;;;67.53;;
8944;SDS011;4507;40.232;29.132;2023-03-20T03:28:54;94.83;;;74.50;;
8944;SDS011;4507;40.232;29.132;2023-03-20T03:31:27;94.17;;;73.23;;
8944;SDS011;4507;40.232;29.132;2023-03-20T03:33:58;107.07;;;79.03;;
8944;SDS011;4507;40.232;29.132;2023-03-20T03:36:32;102.53;;;74.83;;
8944;SDS011;4507;40.232;29.132;2023-03-20T03:39:11;76.10;;;59.17;;
8944;SDS011;4507;40.232;29.132;2023-03-20T03:41:48;86.10;;;62.07;;
8944;SDS011;4507;40.232;29.132;2023-03-20T03:44:21;88.60;;;63.63;;
8944;SDS011;4507;40.232;29.132;2023-03-20T03:46:56;90.90;;;62.00;;
8944;SDS011;4507;40.232;29.132;2023-03-20T03:49:30;85.00;;;69.43;;
8944;SDS011;4507;40.232;29.132;2023-03-20T03:52:02;94.87;;;77.93;;
8944;SDS011;4507;40.232;29.132;2023-03-20T03:54:36;98.50;;;81.23;;
8944;SDS011;4507;40.232;29.132;2023-03-20T03:57:30;187.97;;;119.40;;
8944;SDS011;4507;40.232;29.132;2023-03-20T04:00:07;329.17;;;179.03;;
8944;SDS011;4507;40.232;29.132;2023-03-20T04:02:38;352.23;;;188.67;;
8944;SDS011;4507;40.232;29.132;2023-03-20T04:05:10;217.50;;;131.23;;
8944;SDS011;4507;40.232;29.132;2023-03-20T04:07:42;161.53;;;108.03;;
8944;SDS011;4507;40.232;29.132;2023-03-20T04:10:12;149.77;;;103.67;;
8944;SDS011;4507;40.232;29.132;2023-03-20T04:12:43;154.23;;;107.40;;
8944;SDS011;4507;40.232;29.132;2023-03-20T04:15:14;140.57;;;101.87;;
8944;SDS011;4507;40.232;29.132;2023-03-20T04:17:44;155.93;;;104.40;;
8944;SDS011;4507;40.232;29.132;2023-03-20T04:20:15;129.67;;;98.67;;
8944;SDS011;4507;40.232;29.132;2023-03-20T04:22:45;126.77;;;98.13;;
8944;SDS011;4507;40.232;29.132;2023-03-20T04:25:16;138.97;;;99.30;;
8944;SDS011;4507;40.232;29.132;2023-03-20T04:27:49;133.03;;;100.33;;
8944;SDS011;4507;40.232;29.132;2023-03-20T04:30:36;141.83;;;104.33;;
8944;SDS011;4507;40.232;29.132;2023-03-20T04:33:15;139.27;;;100.90;;
8944;SDS011;4507;40.232;29.132;2023-03-20T04:36:00;129.37;;;94.57;;
8944;SDS011;4507;40.232;29.132;2023-03-20T04:38:31;112.17;;;88.00;;
8944;SDS011;4507;40.232;29.132;2023-03-20T04:41:01;121.30;;;91.23;;
8944;SDS011;4507;40.232;29.132;2023-03-20T04:43:32;139.57;;;101.07;;
8944;SDS011;4507;40.232;29.132;2023-03-20T04:46:01;132.10;;;98.80;;
8944;SDS011;4507;40.232;29.132;2023-03-20T04:48:30;157.00;;;105.30;;
8944;SDS011;4507;40.232;29.132;2023-03-20T04:50:59;142.33;;;97.20;;
8944;SDS011;4507;40.232;29.132;2023-03-20T04:53:40;145.20;;;93.73;;
8944;SDS011;4507;40.232;29.132;2023-03-20T04:56:09;123.00;;;84.30;;
8944;SDS011;4507;40.232;29.132;2023-03-20T04:58:40;118.27;;;83.60;;
8944;SDS011;4507;40.232;29.132;2023-03-20T05:01:09;129.93;;;91.07;;
8944;SDS011;4507;40.232;29.132;2023-03-20T05:03:39;127.47;;;89.63;;
8944;SDS011;4507;40.232;29.132;2023-03-20T05:06:08;123.90;;;85.50;;
8944;SDS011;4507;40.232;29.132;2023-03-20T05:08:40;118.23;;;79.53;;
8944;SDS011;4507;40.232;29.132;2023-03-20T05:11:10;111.70;;;79.57;;
8944;SDS011;4507;40.232;29.132;2023-03-20T05:14:06;100.27;;;73.43;;
8944;SDS011;4507;40.232;29.132;2023-03-20T05:16:50;108.03;;;78.73;;
8944;SDS011;4507;40.232;29.132;2023-03-20T05:19:32;106.23;;;79.10;;
8944;SDS011;4507;40.232;29.132;2023-03-20T05:22:16;104.63;;;73.17;;
8944;SDS011;4507;40.232;29.132;2023-03-20T05:25:04;92.33;;;70.13;;
8944;SDS011;4507;40.232;29.132;2023-03-20T05:27:39;87.90;;;62.93;;
8944;SDS011;4507;40.232;29.132;2023-03-20T05:30:29;83.67;;;63.20;;
8944;SDS011;4507;40.232;29.132;2023-03-20T05:33:22;80.10;;;56.37;;
8944;SDS011;4507;40.232;29.132;2023-03-20T05:36:11;71.93;;;53.53;;
8944;SDS011;4507;40.232;29.132;2023-03-20T05:38:58;80.73;;;57.23;;
8944;SDS011;4507;40.232;29.132;2023-03-20T05:41:50;79.80;;;55.33;;
8944;SDS011;4507;40.232;29.132;2023-03-20T05:44:38;83.60;;;58.37;;
8944;SDS011;4507;40.232;29.132;2023-03-20T05:47:32;76.77;;;57.00;;
8944;SDS011;4507;40.232;29.132;2023-03-20T05:50:20;76.37;;;56.93;;
8944;SDS011;4507;40.232;29.132;2023-03-20T05:52:58;79.10;;;60.70;;
8944;SDS011;4507;40.232;29.132;2023-03-20T05:55:40;78.53;;;58.77;;
8944;SDS011;4507;40.232;29.132;2023-03-20T05:58:42;75.97;;;62.77;;
8944;SDS011;4507;40.232;29.132;2023-03-20T06:01:34;88.80;;;65.10;;
8944;SDS011;4507;40.232;29.132;2023-03-20T06:04:26;78.43;;;63.77;;
8944;SDS011;4507;40.232;29.132;2023-03-20T06:07:13;73.50;;;59.13;;
8944;SDS011;4507;40.232;29.132;2023-03-20T06:09:54;81.40;;;64.50;;
8944;SDS011;4507;40.232;29.132;2023-03-20T06:12:25;78.60;;;62.17;;
8944;SDS011;4507;40.232;29.132;2023-03-20T06:15:12;65.47;;;55.40;;
8944;SDS011;4507;40.232;29.132;2023-03-20T06:17:47;71.23;;;58.93;;
8944;SDS011;4507;40.232;29.132;2023-03-20T06:20:19;80.43;;;64.97;;
8944;SDS011;4507;40.232;29.132;2023-03-20T06:22:48;72.80;;;59.77;;
8944;SDS011;4507;40.232;29.132;2023-03-20T06:25:17;80.90;;;63.53;;
8944;SDS011;4507;40.232;29.132;2023-03-20T06:27:47;93.53;;;73.00;;
8944;SDS011;4507;40.232;29.132;2023-03-20T06:30:18;88.27;;;72.83;;
8944;SDS011;4507;40.232;29.132;2023-03-20T06:32:48;67.23;;;57.97;;
8944;SDS011;4507;40.232;29.132;2023-03-20T06:35:20;56.63;;;47.50;;
8944;SDS011;4507;40.232;29.132;2023-03-20T06:37:50;61.67;;;52.23;;
8944;SDS011;4507;40.232;29.132;2023-03-20T06:40:23;60.67;;;46.90;;
8944;SDS011;4507;40.232;29.132;2023-03-20T06:42:57;62.87;;;45.83;;
8944;SDS011;4507;40.232;29.132;2023-03-20T06:45:38;58.20;;;45.43;;
8944;SDS011;4507;40.232;29.132;2023-03-20T06:48:16;59.63;;;47.97;;
8944;SDS011;4507;40.232;29.132;2023-03-20T06:50:55;63.73;;;50.67;;
8944;SDS011;4507;40.232;29.132;2023-03-20T06:53:36;71.53;;;54.37;;
8944;SDS011;4507;40.232;29.132;2023-03-20T06:56:16;59.53;;;45.27;;
8944;SDS011;4507;40.232;29.132;2023-03-20T06:58:50;49.93;;;40.20;;
8944;SDS011;4507;40.232;29.132;2023-03-20T07:01:19;56.33;;;38.90;;
8944;SDS011;4507;40.232;29.132;2023-03-20T07:03:49;47.33;;;36.20;;
8944;SDS011;4507;40.232;29.132;2023-03-20T07:06:25;51.77;;;37.00;;
8944;SDS011;4507;40.232;29.132;2023-03-20T07:08:58;48.80;;;34.43;;
8944;SDS011;4507;40.232;29.132;2023-03-20T07:11:36;79.47;;;33.63;;
8944;SDS011;4507;40.232;29.132;2023-03-20T07:14:08;70.73;;;32.77;;
8944;SDS011;4507;40.232;29.132;2023-03-20T07:17:01;65.50;;;29.97;;
8944;SDS011;4507;40.232;29.132;2023-03-20T07:19:32;45.37;;;29.50;;
8944;SDS011;4507;40.232;29.132;2023-03-20T07:22:06;43.50;;;28.47;;
8944;SDS011;4507;40.232;29.132;2023-03-20T07:24:39;54.03;;;28.43;;
8944;SDS011;4507;40.232;29.132;2023-03-20T07:27:29;43.03;;;29.93;;
8944;SDS011;4507;40.232;29.132;2023-03-20T07:29:58;60.13;;;29.77;;
8944;SDS011;4507;40.232;29.132;2023-03-20T07:32:27;51.93;;;28.70;;
8944;SDS011;4507;40.232;29.132;2023-03-20T07:34:56;77.53;;;30.63;;
8944;SDS011;4507;40.232;29.132;2023-03-20T07:37:28;51.50;;;29.70;;
8944;SDS011;4507;40.232;29.132;2023-03-20T07:40:01;63.37;;;29.90;;
8944;SDS011;4507;40.232;29.132;2023-03-20T07:42:54;40.10;;;27.07;;
8944;SDS011;4507;40.232;29.132;2023-03-20T07:45:41;39.00;;;24.33;;
8944;SDS011;4507;40.232;29.132;2023-03-20T07:48:10;35.73;;;23.53;;
8944;SDS011;4507;40.232;29.132;2023-03-20T07:50:39;54.70;;;24.23;;
8944;SDS011;4507;40.232;29.132;2023-03-20T07:53:10;56.53;;;23.07;;
8944;SDS011;4507;40.232;29.132;2023-03-20T07:55:39;55.50;;;24.03;;
8944;SDS011;4507;40.232;29.132;2023-03-20T07:58:09;67.47;;;28.90;;
8944;SDS011;4507;40.232;29.132;2023-03-20T08:00:38;74.00;;;33.87;;
8944;SDS011;4507;40.232;29.132;2023-03-20T08:03:07;76.33;;;31.27;;
8944;SDS011;4507;40.232;29.132;2023-03-20T08:05:37;99.10;;;31.93;;
8944;SDS011;4507;40.232;29.132;2023-03-20T08:08:11;76.63;;;34.43;;
8944;SDS011;4507;40.232;29.132;2023-03-20T08:10:40;62.53;;;33.33;;
8944;SDS011;4507;40.232;29.132;2023-03-20T08:13:09;82.50;;;34.80;;
8944;SDS011;4507;40.232;29.132;2023-03-20T08:15:39;58.63;;;34.43;;
8944;SDS011;4507;40.232;29.132;2023-03-20T08:18:12;52.70;;;34.70;;
8944;SDS011;4507;40.232;29.132;2023-03-20T08:20:41;66.77;;;33.47;;
8944;SDS011;4507;40.232;29.132;2023-03-20T08:23:11;46.57;;;28.30;;
8944;SDS011;4507;40.232;29.132;2023-03-20T08:25:40;48.50;;;31.83;;
8944;SDS011;4507;40.232;29.132;2023-03-20T08:28:13;51.33;;;31.00;;
8944;SDS011;4507;40.232;29.132;2023-03-20T08:30:43;53.97;;;34.73;;
8944;SDS011;4507;40.232;29.132;2023-03-20T08:33:13;69.17;;;37.03;;
8944;SDS011;4507;40.232;29.132;2023-03-20T08:35:53;119.40;;;38.77;;
8944;SDS011;4507;40.232;29.132;2023-03-20T08:38:24;91.30;;;37.73;;
8944;SDS011;4507;40.232;29.132;2023-03-20T08:40:53;106.83;;;38.23;;
8944;SDS011;4507;40.232;29.132;2023-03-20T08:43:22;82.13;;;39.10;;
8944;SDS011;4507;40.232;29.132;2023-03-20T08:45:51;58.30;;;26.23;;
8944;SDS011;4507;40.232;29.132;2023-03-20T08:48:21;53.70;;;26.57;;
8944;SDS011;4507;40.232;29.132;2023-03-20T08:50:52;49.60;;;28.27;;
8944;SDS011;4507;40.232;29.132;2023-03-20T08:53:21;47.00;;;30.20;;
8944;SDS011;4507;40.232;29.132;2023-03-20T08:55:53;49.93;;;30.07;;
8944;SDS011;4507;40.232;29.132;2023-03-20T08:58:22;52.93;;;30.93;;
8944;SDS011;4507;40.232;29.132;2023-03-20T09:00:51;72.50;;;30.57;;
8944;SDS011;4507;40.232;29.132;2023-03-20T09:03:20;79.33;;;31.20;;
8944;SDS011;4507;40.232;29.132;2023-03-20T09:05:49;51.63;;;29.30;;
8944;SDS011;4507;40.232;29.132;2023-03-20T09:08:19;66.97;;;31.47;;
8944;SDS011;4507;40.232;29.132;2023-03-20T09:10:49;49.30;;;30.23;;
8944;SDS011;4507;40.232;29.132;2023-03-20T09:13:19;70.93;;;32.33;;
8944;SDS011;4507;40.232;29.132;2023-03-20T09:34:30;58.77;;;30.93;;
8944;SDS011;4507;40.232;29.132;2023-03-20T09:36:59;44.03;;;30.13;;
8944;SDS011;4507;40.232;29.132;2023-03-20T09:39:29;49.67;;;28.43;;
8944;SDS011;4507;40.232;29.132;2023-03-20T09:41:58;47.20;;;27.10;;
8944;SDS011;4507;40.232;29.132;2023-03-20T09:44:41;54.90;;;27.70;;
8944;SDS011;4507;40.232;29.132;2023-03-20T09:47:17;33.50;;;23.67;;
8944;SDS011;4507;40.232;29.132;2023-03-20T09:50:03;30.73;;;22.30;;
8944;SDS011;4507;40.232;29.132;2023-03-20T09:52:51;46.30;;;25.93;;
8944;SDS011;4507;40.232;29.132;2023-03-20T09:55:28;66.57;;;27.93;;
8944;SDS011;4507;40.232;29.132;2023-03-20T09:58:03;47.83;;;28.80;;
8944;SDS011;4507;40.232;29.132;2023-03-20T10:00:37;51.83;;;30.10;;
8944;SDS011;4507;40.232;29.132;2023-03-20T10:03:13;45.23;;;29.13;;
8944;SDS011;4507;40.232;29.132;2023-03-20T10:05:47;49.57;;;28.03;;
8944;SDS011;4507;40.232;29.132;2023-03-20T10:08:24;53.07;;;30.20;;
8944;SDS011;4507;40.232;29.132;2023-03-20T10:11:23;49.80;;;30.53;;
8944;SDS011;4507;40.232;29.132;2023-03-20T10:14:08;52.83;;;31.67;;
8944;SDS011;4507;40.232;29.132;2023-03-20T10:16:46;42.57;;;32.43;;
8944;SDS011;4507;40.232;29.132;2023-03-20T10:19:26;41.87;;;30.30;;
8944;SDS011;4507;40.232;29.132;2023-03-20T10:22:05;48.40;;;30.57;;
8944;SDS011;4507;40.232;29.132;2023-03-20T10:24:43;59.07;;;32.17;;
8944;SDS011;4507;40.232;29.132;2023-03-20T10:27:38;46.93;;;31.20;;
8944;SDS011;4507;40.232;29.132;2023-03-20T10:30:26;49.30;;;30.13;;
8944;SDS011;4507;40.232;29.132;2023-03-20T10:33:16;43.63;;;29.97;;
8944;SDS011;4507;40.232;29.132;2023-03-20T10:36:03;107.80;;;33.30;;
8944;SDS011;4507;40.232;29.132;2023-03-20T10:38:43;45.13;;;28.97;;
8944;SDS011;4507;40.232;29.132;2023-03-20T10:41:17;40.03;;;27.77;;
8944;SDS011;4507;40.232;29.132;2023-03-20T10:43:50;66.73;;;31.93;;
8944;SDS011;4507;40.232;29.132;2023-03-20T10:46:24;51.20;;;27.70;;
8944;SDS011;4507;40.232;29.132;2023-03-20T10:48:58;102.83;;;32.53;;
8944;SDS011;4507;40.232;29.132;2023-03-20T10:51:35;53.77;;;29.10;;
8944;SDS011;4507;40.232;29.132;2023-03-20T10:54:09;46.00;;;28.03;;
8944;SDS011;4507;40.232;29.132;2023-03-20T10:57:08;41.40;;;27.27;;
8944;SDS011;4507;40.232;29.132;2023-03-20T10:59:43;58.97;;;28.73;;
8944;SDS011;4507;40.232;29.132;2023-03-20T11:02:16;63.50;;;28.10;;
8944;SDS011;4507;40.232;29.132;2023-03-20T11:04:46;42.77;;;26.33;;
8944;SDS011;4507;40.232;29.132;2023-03-20T11:07:18;44.33;;;26.87;;
8944;SDS011;4507;40.232;29.132;2023-03-20T11:12:44;34.00;;;24.50;;
8944;SDS011;4507;40.232;29.132;2023-03-20T11:15:21;32.50;;;23.87;;
8944;SDS011;4507;40.232;29.132;2023-03-20T11:17:54;164.07;;;30.80;;
8944;SDS011;4507;40.232;29.132;2023-03-20T11:20:24;128.93;;;31.57;;
8944;SDS011;4507;40.232;29.132;2023-03-20T11:22:58;55.67;;;25.57;;
8944;SDS011;4507;40.232;29.132;2023-03-20T11:25:31;135.67;;;28.50;;
8944;SDS011;4507;40.232;29.132;2023-03-20T11:28:18;40.50;;;24.17;;
8944;SDS011;4507;40.232;29.132;2023-03-20T11:31:03;41.00;;;23.23;;
8944;SDS011;4507;40.232;29.132;2023-03-20T11:33:35;31.33;;;23.03;;
8944;SDS011;4507;40.232;29.132;2023-03-20T11:36:10;29.40;;;22.37;;
8944;SDS011;4507;40.232;29.132;2023-03-20T11:38:47;40.07;;;24.17;;
8944;SDS011;4507;40.232;29.132;2023-03-20T11:41:22;43.37;;;22.13;;
8944;SDS011;4507;40.232;29.132;2023-03-20T11:43:53;57.83;;;26.53;;
8944;SDS011;4507;40.232;29.132;2023-03-20T11:46:22;32.73;;;23.67;;
8944;SDS011;4507;40.232;29.132;2023-03-20T11:49:05;38.40;;;24.20;;
8944;SDS011;4507;40.232;29.132;2023-03-20T11:51:45;31.70;;;23.00;;
8944;SDS011;4507;40.232;29.132;2023-03-20T11:54:16;48.93;;;25.17;;
8944;SDS011;4507;40.232;29.132;2023-03-20T11:57:10;58.93;;;26.17;;
8944;SDS011;4507;40.232;29.132;2023-03-20T12:00:04;42.97;;;23.87;;
8944;SDS011;4507;40.232;29.132;2023-03-20T12:02:49;33.73;;;23.13;;
8944;SDS011;4507;40.232;29.132;2023-03-20T12:05:37;38.13;;;23.43;;
8944;SDS011;4507;40.232;29.132;2023-03-20T12:08:08;39.00;;;23.93;;
8944;SDS011;4507;40.232;29.132;2023-03-20T12:10:43;58.43;;;26.80;;
8944;SDS011;4507;40.232;29.132;2023-03-20T12:13:19;46.60;;;24.87;;
8944;SDS011;4507;40.232;29.132;2023-03-20T12:15:53;43.60;;;24.00;;
8944;SDS011;4507;40.232;29.132;2023-03-20T12:18:25;43.03;;;24.23;;
8944;SDS011;4507;40.232;29.132;2023-03-20T12:21:03;35.73;;;23.90;;
8944;SDS011;4507;40.232;29.132;2023-03-20T12:23:38;41.97;;;24.20;;
8944;SDS011;4507;40.232;29.132;2023-03-20T12:26:11;34.93;;;24.23;;
8944;SDS011;4507;40.232;29.132;2023-03-20T12:28:45;36.57;;;25.87;;
8944;SDS011;4507;40.232;29.132;2023-03-20T12:31:23;38.77;;;24.40;;
8944;SDS011;4507;40.232;29.132;2023-03-20T12:33:55;42.13;;;23.23;;
8944;SDS011;4507;40.232;29.132;2023-03-20T12:36:29;31.27;;;22.17;;
8944;SDS011;4507;40.232;29.132;2023-03-20T12:39:01;36.60;;;22.27;;
8944;SDS011;4507;40.232;29.132;2023-03-20T12:41:34;29.70;;;21.33;;
8944;SDS011;4507;40.232;29.132;2023-03-20T12:44:15;33.67;;;22.13;;
8944;SDS011;4507;40.232;29.132;2023-03-20T12:46:59;39.73;;;23.53;;
8944;SDS011;4507;40.232;29.132;2023-03-20T12:49:39;51.77;;;23.17;;
8944;SDS011;4507;40.232;29.132;2023-03-20T12:52:19;35.67;;;19.57;;
8944;SDS011;4507;40.232;29.132;2023-03-20T12:57:54;35.37;;;19.63;;
8944;SDS011;4507;40.232;29.132;2023-03-20T13:00:34;72.27;;;24.93;;
8944;SDS011;4507;40.232;29.132;2023-03-20T13:03:10;35.63;;;19.70;;
8944;SDS011;4507;40.232;29.132;2023-03-20T13:06:01;32.97;;;21.53;;
8944;SDS011;4507;40.232;29.132;2023-03-20T13:11:35;30.47;;;21.93;;
8944;SDS011;4507;40.232;29.132;2023-03-20T13:14:12;35.50;;;22.90;;
8944;SDS011;4507;40.232;29.132;2023-03-20T13:16:50;30.17;;;21.80;;
8944;SDS011;4507;40.232;29.132;2023-03-20T13:19:24;40.43;;;24.13;;
8944;SDS011;4507;40.232;29.132;2023-03-20T13:22:01;32.77;;;20.50;;
8944;SDS011;4507;40.232;29.132;2023-03-20T13:24:36;28.60;;;22.37;;
8944;SDS011;4507;40.232;29.132;2023-03-20T13:27:21;57.73;;;24.23;;
8944;SDS011;4507;40.232;29.132;2023-03-20T13:30:00;33.77;;;22.67;;
8944;SDS011;4507;40.232;29.132;2023-03-20T13:32:40;49.97;;;24.27;;
8944;SDS011;4507;40.232;29.132;2023-03-20T13:35:19;52.60;;;23.77;;
8944;SDS011;4507;40.232;29.132;2023-03-20T13:37:58;53.83;;;23.83;;
8944;SDS011;4507;40.232;29.132;2023-03-20T13:40:34;46.83;;;22.43;;
8944;SDS011;4507;40.232;29.132;2023-03-20T13:43:12;51.50;;;22.43;;
8944;SDS011;4507;40.232;29.132;2023-03-20T13:45:53;35.93;;;21.63;;
8944;SDS011;4507;40.232;29.132;2023-03-20T13:48:31;35.37;;;22.70;;
8944;SDS011;4507;40.232;29.132;2023-03-20T13:51:06;34.07;;;21.00;;
8944;SDS011;4507;40.232;29.132;2023-03-20T13:53:44;29.40;;;20.73;;
8944;SDS011;4507;40.232;29.132;2023-03-20T13:56:22;33.97;;;21.53;;
8944;SDS011;4507;40.232;29.132;2023-03-20T13:59:02;66.97;;;27.03;;
8944;SDS011;4507;40.232;29.132;2023-03-20T14:01:46;36.50;;;21.87;;
8944;SDS011;4507;40.232;29.132;2023-03-20T14:04:25;43.57;;;21.47;;
8944;SDS011;4507;40.232;29.132;2023-03-20T14:06:56;35.47;;;21.33;;
8944;SDS011;4507;40.232;29.132;2023-03-20T14:09:27;34.50;;;20.20;;
8944;SDS011;4507;40.232;29.132;2023-03-20T14:12:00;35.73;;;20.97;;
8944;SDS011;4507;40.232;29.132;2023-03-20T14:14:32;40.60;;;23.80;;
8944;SDS011;4507;40.232;29.132;2023-03-20T14:17:12;36.70;;;24.13;;
8944;SDS011;4507;40.232;29.132;2023-03-20T14:19:46;28.87;;;20.07;;
8944;SDS011;4507;40.232;29.132;2023-03-20T14:22:17;31.27;;;20.97;;
8944;SDS011;4507;40.232;29.132;2023-03-20T14:24:50;41.23;;;24.50;;
8944;SDS011;4507;40.232;29.132;2023-03-20T14:27:25;35.70;;;21.97;;
8944;SDS011;4507;40.232;29.132;2023-03-20T14:33:25;46.93;;;23.63;;
8944;SDS011;4507;40.232;29.132;2023-03-20T14:36:16;52.83;;;26.00;;
8944;SDS011;4507;40.232;29.132;2023-03-20T14:38:54;43.40;;;23.40;;
8944;SDS011;4507;40.232;29.132;2023-03-20T14:41:47;49.63;;;23.27;;
8944;SDS011;4507;40.232;29.132;2023-03-20T14:44:37;41.93;;;23.73;;
8944;SDS011;4507;40.232;29.132;2023-03-20T14:47:21;43.43;;;23.10;;
8944;SDS011;4507;40.232;29.132;2023-03-20T14:50:02;53.57;;;25.13;;
8944;SDS011;4507;40.232;29.132;2023-03-20T14:52:44;36.50;;;23.10;;
8944;SDS011;4507;40.232;29.132;2023-03-20T14:55:27;70.50;;;25.83;;
8944;SDS011;4507;40.232;29.132;2023-03-20T14:58:02;49.37;;;24.50;;
8944;SDS011;4507;40.232;29.132;2023-03-20T15:00:34;60.47;;;25.07;;
8944;SDS011;4507;40.232;29.132;2023-03-20T15:03:12;56.53;;;25.07;;
8944;SDS011;4507;40.232;29.132;2023-03-20T15:05:43;50.63;;;25.07;;
8944;SDS011;4507;40.232;29.132;2023-03-20T15:08:16;34.50;;;23.13;;
8944;SDS011;4507;40.232;29.132;2023-03-20T15:10:52;48.00;;;23.90;;
8944;SDS011;4507;40.232;29.132;2023-03-20T15:13:24;43.30;;;25.70;;
8944;SDS011;4507;40.232;29.132;2023-03-20T15:15:55;49.43;;;27.37;;
8944;SDS011;4507;40.232;29.132;2023-03-20T15:18:35;82.47;;;33.07;;
8944;SDS011;4507;40.232;29.132;2023-03-20T15:21:09;76.53;;;25.37;;
8944;SDS011;4507;40.232;29.132;2023-03-20T15:23:43;59.20;;;25.63;;
8944;SDS011;4507;40.232;29.132;2023-03-20T15:26:14;50.70;;;24.40;;
8944;SDS011;4507;40.232;29.132;2023-03-20T15:28:45;88.07;;;25.87;;
8944;SDS011;4507;40.232;29.132;2023-03-20T15:31:18;69.33;;;23.70;;
8944;SDS011;4507;40.232;29.132;2023-03-20T15:33:50;50.00;;;23.17;;
8944;SDS011;4507;40.232;29.132;2023-03-20T15:36:20;46.03;;;22.87;;
8944;SDS011;4507;40.232;29.132;2023-03-20T15:38:54;47.37;;;22.77;;
8944;SDS011;4507;40.232;29.132;2023-03-20T15:41:33;49.77;;;21.37;;
8944;SDS011;4507;40.232;29.132;2023-03-20T15:44:24;59.50;;;24.90;;
8944;SDS011;4507;40.232;29.132;2023-03-20T15:47:01;68.23;;;30.17;;
8944;SDS011;4507;40.232;29.132;2023-03-20T15:49:34;66.87;;;33.33;;
8944;SDS011;4507;40.232;29.132;2023-03-20T15:52:09;129.50;;;60.93;;
8944;SDS011;4507;40.232;29.132;2023-03-20T15:55:10;102.27;;;39.73;;
8944;SDS011;4507;40.232;29.132;2023-03-20T15:57:45;69.47;;;28.33;;
8944;SDS011;4507;40.232;29.132;2023-03-20T16:00:35;86.33;;;27.10;;
8944;SDS011;4507;40.232;29.132;2023-03-20T16:03:10;80.33;;;25.23;;
8944;SDS011;4507;40.232;29.132;2023-03-20T16:05:43;58.43;;;23.53;;
8944;SDS011;4507;40.232;29.132;2023-03-20T16:08:14;54.00;;;24.93;;